PROFILE

 METAR AND TAF INFORMATION
ADDS - METARS form results

(0811 UTC 19 August 2019)
http://aviationweather.gov/metar/data/
 
GMAD 190800Z 25004KT CAVOK 22/15 Q1012 NOSIG
GMAD 190730Z 00000KT CAVOK 21/14 Q1012 NOSIG
TAF GMAD 190500Z 1906/2012 22008KT CAVOK 

 AIRPORT MAP

 RUNWAY INFORMATION
Runway 10 Runway length 10499 ft Runway width 148 ft
Runway elevation 198 ft Runway displaced threshold 0 ft Runway heading 92
Runway 28 Runway length 10499 ft Runway width 148 ft
Runway elevation 254 ft Runway displaced threshold 0 ft Runway heading 272

 AIRPORT FREQUENCIES
Type APP Name AGADIR APP Frequency 120.9 MHZ
Type TWR Name AGADIR TWR Frequency 119.5 MHZ

 AIRPORT NEAR NAVIGATION AIDS
Type VOR-DME Name Agadir Frequency 117200 KHZ
Type NDB Name Agadir Frequency 396 KHZ
Type NDB Name Agadir Frequency 402 KHZ